Time;durP1;ratioP1;P1;durP2;ratioP2;P2;SDS_P1;SDS_P2;PMS_P1;PMS_P2;Temp;Humidity;BMP_temperature;BMP_pressure;BME280_temperature;BME280_humidity;BME280_pressure;Samples;Min_cycle;Max_cycle;Signal;HPM_P1;HPM_P2
2020/12/14 06:53:54;;;;;;;11.83;6.87;;;1.60;99.90;;;;;;6213470;23;20059;-88
2020/12/14 06:56:26;;;;;;;13.73;7.40;;;1.60;99.90;;;;;;6209655;23;20028;-88
2020/12/14 06:58:52;;;;;;;13.15;7.55;;;1.60;99.90;;;;;;6209270;23;20005;-88
2020/12/14 07:01:40;;;;;;;12.40;7.37;;;1.50;99.90;;;;;;6211487;23;20005;-88
2020/12/14 07:04:12;;;;;;;15.30;7.50;;;1.50;99.90;;;;;;6211620;23;20040;-88
2020/12/14 07:06:38;;;;;;;14.07;7.43;;;1.50;99.90;;;;;;6211975;23;20005;-89
2020/12/14 07:09:38;;;;;;;15.10;7.80;;;1.60;99.90;;;;;;6211207;23;20305;-89
2020/12/14 07:12:09;;;;;;;13.53;8.23;;;1.50;99.90;;;;;;6146945;23;20008;-88
2020/12/14 07:14:46;;;;;;;14.18;8.07;;;1.60;99.90;;;;;;6211099;23;20710;-88
2020/12/14 07:17:29;;;;;;;15.17;8.63;;;1.60;99.90;;;;;;6213343;23;20054;-88
2020/12/14 07:19:59;;;;;;;15.05;7.95;;;1.60;99.90;;;;;;6212658;23;20020;-88
2020/12/14 07:22:48;;;;;;;16.63;8.30;;;1.70;99.90;;;;;;6187500;23;20009;-88
2020/12/14 07:25:21;;;;;;;15.73;8.70;;;1.70;99.90;;;;;;6210505;23;20020;-88
2020/12/14 07:27:49;;;;;;;16.77;8.97;;;1.70;99.90;;;;;;6212552;23;20008;-88
2020/12/14 07:30:18;;;;;;;16.40;8.90;;;1.70;99.90;;;;;;6214071;23;20307;-89
2020/12/14 07:32:46;;;;;;;17.10;8.40;;;1.70;99.90;;;;;;6214906;23;20001;-89
2020/12/14 07:35:11;;;;;;;16.70;8.53;;;1.80;99.90;;;;;;6214974;23;20000;-88
2020/12/14 07:37:37;;;;;;;14.80;8.50;;;1.80;99.90;;;;;;6213461;23;20013;-89
2020/12/14 07:40:08;;;;;;;15.93;8.30;;;1.80;99.90;;;;;;6213970;23;20004;-89
2020/12/14 07:42:36;;;;;;;17.10;9.03;;;1.80;99.90;;;;;;6214073;23;20008;-89
2020/12/14 07:45:23;;;;;;;17.87;8.53;;;1.90;99.90;;;;;;6213690;23;20009;-89
2020/12/14 07:47:53;;;;;;;16.17;8.13;;;1.90;99.90;;;;;;6212962;23;20008;-88
2020/12/14 07:50:21;;;;;;;16.97;8.90;;;1.90;99.90;;;;;;6214072;23;20091;-88
2020/12/14 07:52:49;;;;;;;17.47;8.90;;;2.00;99.90;;;;;;6213992;23;20672;-88
2020/12/14 07:55:16;;;;;;;17.47;9.80;;;1.90;99.90;;;;;;6214143;23;20066;-88
2020/12/14 07:57:44;;;;;;;15.60;8.63;;;1.90;99.90;;;;;;6214348;23;20008;-88
2020/12/14 08:00:15;;;;;;;16.23;9.00;;;2.00;99.90;;;;;;6213719;23;20007;-88
2020/12/14 08:02:42;;;;;;;20.37;8.97;;;2.00;99.90;;;;;;6216748;23;20000;-89
2020/12/14 08:05:12;;;;;;;22.03;9.27;;;2.10;99.90;;;;;;6216868;23;20458;-89
2020/12/14 08:08:03;;;;;;;20.57;9.97;;;2.10;99.90;;;;;;6214799;23;20000;-88
2020/12/14 08:10:33;;;;;;;17.10;9.23;;;2.20;99.90;;;;;;6213825;23;20012;-88
2020/12/14 08:13:10;;;;;;;18.57;10.10;;;2.20;99.90;;;;;;6214580;23;20031;-89
2020/12/14 08:15:39;;;;;;;18.57;10.30;;;2.30;99.90;;;;;;6213674;23;20079;-88
2020/12/14 08:18:06;;;;;;;17.70;9.50;;;2.30;99.90;;;;;;6212914;23;20005;-88
2020/12/14 08:20:34;;;;;;;17.57;9.47;;;2.40;99.90;;;;;;6213582;23;20005;-89
2020/12/14 08:23:15;;;;;;;15.50;8.83;;;2.50;99.90;;;;;;6213985;23;20001;-88
2020/12/14 08:25:44;;;;;;;17.70;9.70;;;2.60;99.90;;;;;;6217361;23;20055;-89
2020/12/14 08:28:10;;;;;;;21.27;9.23;;;2.70;99.90;;;;;;6216131;23;20416;-89
2020/12/14 08:30:39;;;;;;;17.30;9.07;;;2.70;99.90;;;;;;6213836;23;20005;-88
2020/12/14 08:33:19;;;;;;;14.63;9.30;;;2.80;99.90;;;;;;6213421;23;20012;-89
2020/12/14 08:35:55;;;;;;;15.67;8.63;;;2.80;99.90;;;;;;6213668;23;20015;-89
2020/12/14 08:38:27;;;;;;;16.47;9.20;;;2.90;99.90;;;;;;6212356;23;20320;-89
2020/12/14 08:41:01;;;;;;;13.73;8.23;;;2.90;99.90;;;;;;6215002;23;20011;-88
2020/12/14 08:43:28;;;;;;;19.53;9.47;;;2.90;99.90;;;;;;6214248;23;20035;-88
2020/12/14 08:46:14;;;;;;;14.63;8.87;;;3.00;99.90;;;;;;6215195;23;20075;-88
2020/12/14 08:48:49;;;;;;;14.20;8.57;;;3.00;99.90;;;;;;6213119;23;20146;-89
2020/12/14 08:51:22;;;;;;;15.97;9.17;;;3.10;99.90;;;;;;6214145;23;20012;-90
2020/12/14 08:54:15;;;;;;;18.83;10.40;;;3.10;99.90;;;;;;6229023;23;20039;-93
2020/12/14 12:18:27;;;;;;;8.40;4.50;;;7.90;99.90;;;;;;6240519;22;20070;-93
